Time;durP1;ratioP1;P1;durP2;ratioP2;P2;SDS_P1;SDS_P2;PMS_P1;PMS_P2;Temp;Humidity;BMP_temperature;BMP_pressure;BME280_temperature;BME280_humidity;BME280_pressure;Samples;Min_cycle;Max_cycle;Signal;HPM_P1;HPM_P2
2023/05/28 00:02:21;;;;;;;104.60;99.25;;;9.90;99.90;;;;;;4986523;28;20142;-75
2023/05/28 00:04:47;;;;;;;107.20;102.05;;;9.90;99.90;;;;;;4970595;28;20073;-75
2023/05/28 00:07:13;;;;;;;102.85;98.00;;;9.90;99.90;;;;;;4985183;28;20042;-75
2023/05/28 00:09:40;;;;;;;104.32;98.97;;;9.90;99.90;;;;;;4983971;28;20137;-75
2023/05/28 00:12:07;;;;;;;103.90;98.63;;;10.00;99.90;;;;;;4986609;28;20469;-75
2023/05/28 00:14:33;;;;;;;103.82;99.20;;;10.00;99.90;;;;;;4985566;28;20046;-75
2023/05/28 00:16:59;;;;;;;106.90;101.82;;;10.00;99.90;;;;;;4986769;28;20054;-75
2023/05/28 00:19:24;;;;;;;108.47;103.25;;;10.00;99.90;;;;;;4984588;28;20621;-75
2023/05/28 00:21:50;;;;;;;107.47;102.32;;;10.00;99.90;;;;;;4986678;28;20046;-75
2023/05/28 00:24:15;;;;;;;105.53;100.68;;;10.00;99.90;;;;;;4964945;28;20093;-75
2023/05/28 00:26:41;;;;;;;105.50;99.50;;;10.00;99.90;;;;;;4986493;28;20125;-74
2023/05/28 00:29:07;;;;;;;103.03;98.03;;;10.10;99.90;;;;;;4985093;28;20108;-75
2023/05/28 00:31:32;;;;;;;100.90;95.72;;;10.00;99.90;;;;;;5002036;28;20038;-75
2023/05/28 00:33:58;;;;;;;103.88;98.53;;;10.10;99.90;;;;;;4986516;28;20042;-75
2023/05/28 00:36:24;;;;;;;101.53;96.50;;;10.10;99.90;;;;;;4985245;28;20969;-75
2023/05/28 00:38:50;;;;;;;100.30;95.53;;;10.10;99.90;;;;;;4972294;28;20038;-75
2023/05/28 00:41:20;;;;;;;98.05;93.15;;;10.10;99.90;;;;;;4979880;28;20042;-75
2023/05/28 00:43:46;;;;;;;98.95;93.63;;;10.10;99.90;;;;;;4986313;28;20414;-75
2023/05/28 00:46:12;;;;;;;96.47;92.18;;;10.10;99.90;;;;;;4986434;28;20038;-75
2023/05/28 00:48:38;;;;;;;96.13;91.22;;;10.10;99.90;;;;;;4984850;28;20067;-75
2023/05/28 00:51:04;;;;;;;93.63;88.95;;;10.10;99.90;;;;;;4986607;28;20082;-75
2023/05/28 00:53:30;;;;;;;91.15;86.63;;;10.10;99.90;;;;;;4986833;28;20102;-75
2023/05/28 00:55:57;;;;;;;88.32;83.95;;;10.10;99.90;;;;;;4969866;28;20406;-76
2023/05/28 00:58:24;;;;;;;88.82;84.53;;;10.10;99.90;;;;;;4980390;28;20085;-76
2023/05/28 01:00:50;;;;;;;87.45;83.07;;;10.10;99.90;;;;;;4985238;28;20050;-76
2023/05/28 01:03:16;;;;;;;89.57;84.90;;;10.10;99.90;;;;;;4986430;28;20191;-75
2023/05/28 01:05:42;;;;;;;87.28;82.85;;;10.10;99.90;;;;;;4989978;28;20506;-76
2023/05/28 01:08:08;;;;;;;87.05;82.63;;;10.10;99.90;;;;;;4990494;28;20474;-75
2023/05/28 01:10:36;;;;;;;90.57;85.88;;;10.10;99.90;;;;;;4988361;28;20045;-75
2023/05/28 01:13:03;;;;;;;86.03;81.75;;;10.00;99.90;;;;;;4990303;28;20097;-75
2023/05/28 01:15:29;;;;;;;87.18;82.78;;;10.00;99.90;;;;;;4984218;28;20406;-75
2023/05/28 01:18:00;;;;;;;89.70;85.10;;;10.00;99.90;;;;;;4990048;28;20046;-75
2023/05/28 01:20:28;;;;;;;91.78;87.47;;;10.00;99.90;;;;;;4988082;28;20109;-75
2023/05/28 01:22:55;;;;;;;91.22;86.32;;;9.90;99.90;;;;;;4985682;28;20401;-75
2023/05/28 01:25:24;;;;;;;90.43;86.30;;;9.90;99.90;;;;;;4986414;28;20093;-75
2023/05/28 01:27:50;;;;;;;94.22;89.70;;;9.90;99.90;;;;;;4973243;28;20042;-75
2023/05/28 01:30:16;;;;;;;93.90;89.47;;;9.90;99.90;;;;;;4989506;28;20414;-75
2023/05/28 01:32:42;;;;;;;93.78;89.10;;;9.90;99.90;;;;;;4987955;28;20034;-75
2023/05/28 01:35:09;;;;;;;95.03;90.63;;;9.90;99.90;;;;;;4986734;28;20446;-75
2023/05/28 01:37:49;;;;;;;101.88;97.20;;;9.90;99.90;;;;;;4979553;28;20104;-74
2023/05/28 01:40:17;;;;;;;103.18;98.32;;;9.90;99.90;;;;;;4989066;28;20052;-75
2023/05/28 01:42:45;;;;;;;106.20;101.20;;;9.90;99.90;;;;;;4987357;28;20042;-75
2023/05/28 01:45:12;;;;;;;107.60;102.75;;;9.90;99.90;;;;;;4987557;28;20058;-76
2023/05/28 01:47:40;;;;;;;111.40;105.97;;;9.90;99.90;;;;;;4988697;28;20104;-76
2023/05/28 01:50:07;;;;;;;108.05;102.60;;;10.00;99.90;;;;;;4984861;28;20136;-76
2023/05/28 01:52:33;;;;;;;110.38;105.10;;;10.00;99.90;;;;;;4993639;28;20073;-75
2023/05/28 01:54:58;;;;;;;108.43;103.30;;;10.00;99.90;;;;;;4984560;28;20174;-76
2023/05/28 01:57:24;;;;;;;108.40;102.95;;;10.00;99.90;;;;;;4988096;28;20269;-75
2023/05/28 01:59:49;;;;;;;109.75;104.35;;;10.00;99.90;;;;;;4981168;28;20051;-75
2023/05/28 02:02:15;;;;;;;105.07;100.18;;;10.00;99.90;;;;;;4987518;28;20545;-76
2023/05/28 02:04:41;;;;;;;106.18;101.18;;;10.10;99.90;;;;;;4983281;28;20061;-76
2023/05/28 02:07:07;;;;;;;104.30;99.05;;;10.00;99.90;;;;;;4988665;28;20038;-75
2023/05/28 02:09:32;;;;;;;100.57;95.07;;;10.00;99.90;;;;;;4972135;28;20197;-76
2023/05/28 02:12:02;;;;;;;100.78;96.05;;;10.00;99.90;;;;;;4982091;28;20042;-75
2023/05/28 02:14:28;;;;;;;93.78;89.05;;;10.00;99.90;;;;;;4987734;28;20047;-76
2023/05/28 02:16:54;;;;;;;97.10;91.45;;;10.00;99.90;;;;;;4988865;28;20034;-76
2023/05/28 02:19:20;;;;;;;94.50;89.47;;;10.00;99.90;;;;;;4988325;28;20129;-77
2023/05/28 02:21:46;;;;;;;93.80;89.00;;;10.00;99.90;;;;;;4988444;28;20452;-76
2023/05/28 02:24:12;;;;;;;95.82;91.60;;;10.00;99.90;;;;;;4988169;28;20046;-76
2023/05/28 02:26:37;;;;;;;96.53;91.60;;;10.00;99.90;;;;;;4988425;28;20383;-76
2023/05/28 02:29:03;;;;;;;93.68;89.32;;;9.90;99.90;;;;;;4983823;28;20156;-76
2023/05/28 02:31:29;;;;;;;89.88;84.95;;;9.90;99.90;;;;;;4988196;28;20041;-76
2023/05/28 02:33:54;;;;;;;93.38;88.93;;;9.90;99.90;;;;;;4986439;28;20544;-75
2023/05/28 02:36:20;;;;;;;97.07;92.15;;;9.90;99.90;;;;;;4988486;28;20042;-75
2023/05/28 02:38:46;;;;;;;94.43;89.50;;;9.90;99.90;;;;;;4992244;28;20096;-75
2023/05/28 02:41:12;;;;;;;99.28;94.80;;;9.80;99.90;;;;;;4971887;28;20042;-75
2023/05/28 02:43:37;;;;;;;104.07;99.35;;;9.80;99.90;;;;;;4985799;28;20502;-75
2023/05/28 02:46:03;;;;;;;105.82;100.90;;;9.80;99.90;;;;;;4987581;28;20042;-76
2023/05/28 02:48:29;;;;;;;108.20;103.05;;;9.80;99.90;;;;;;4987042;28;20038;-75
2023/05/28 02:50:54;;;;;;;110.40;105.38;;;9.80;99.90;;;;;;4986881;28;20049;-75
2023/05/28 02:53:21;;;;;;;109.32;103.88;;;9.80;99.90;;;;;;4985558;28;20038;-75
2023/05/28 02:55:47;;;;;;;112.15;106.72;;;9.80;99.90;;;;;;4983524;28;20030;-76
2023/05/28 02:58:13;;;;;;;106.40;101.30;;;9.80;99.90;;;;;;4988042;28;20080;-76
2023/05/28 03:00:40;;;;;;;108.63;103.32;;;9.80;99.90;;;;;;4986727;28;20460;-76
2023/05/28 03:03:05;;;;;;;104.55;99.47;;;9.80;99.90;;;;;;4987100;28;20092;-75
2023/05/28 03:05:32;;;;;;;107.13;101.75;;;9.80;99.90;;;;;;4987115;28;20045;-75
2023/05/28 03:07:58;;;;;;;105.78;100.57;;;9.80;99.90;;;;;;4986712;28;20049;-75
2023/05/28 03:10:24;;;;;;;107.55;102.32;;;9.80;99.90;;;;;;4980810;28;20379;-75
2023/05/28 03:12:50;;;;;;;110.43;105.03;;;9.80;99.90;;;;;;4985359;28;20046;-76
2023/05/28 03:15:16;;;;;;;111.13;105.68;;;9.80;99.90;;;;;;4985100;28;20174;-75
2023/05/28 03:17:42;;;;;;;115.43;109.53;;;9.70;99.90;;;;;;4987592;28;20042;-75
2023/05/28 03:20:10;;;;;;;113.50;107.93;;;9.70;99.90;;;;;;4986791;28;20061;-76
2023/05/28 03:22:36;;;;;;;112.43;107.15;;;9.80;99.90;;;;;;4983992;28;20054;-75
2023/05/28 03:25:02;;;;;;;109.80;104.45;;;9.70;99.90;;;;;;4979960;28;20403;-75
2023/05/28 03:27:28;;;;;;;110.78;105.22;;;9.70;99.90;;;;;;4986582;28;20057;-75
2023/05/28 03:29:54;;;;;;;110.18;105.00;;;9.70;99.90;;;;;;4985940;28;20035;-76
2023/05/28 03:32:19;;;;;;;113.72;108.32;;;9.60;99.90;;;;;;4986375;28;20038;-75
2023/05/28 03:34:45;;;;;;;112.53;107.15;;;9.60;99.90;;;;;;4986569;28;20072;-75
2023/05/28 03:37:10;;;;;;;110.32;105.30;;;9.60;99.90;;;;;;4990893;28;20034;-76
2023/05/28 03:39:36;;;;;;;111.85;106.68;;;9.60;99.90;;;;;;4970082;28;20852;-75
2023/05/28 03:42:02;;;;;;;109.82;104.57;;;9.60;99.90;;;;;;4981026;28;20030;-75
2023/05/28 03:44:27;;;;;;;106.97;101.68;;;9.60;99.90;;;;;;4981924;28;20498;-75
2023/05/28 03:46:53;;;;;;;106.00;100.95;;;9.60;99.90;;;;;;4985753;28;20057;-75
2023/05/28 03:49:18;;;;;;;104.47;99.30;;;9.60;99.90;;;;;;4985862;28;20106;-75
2023/05/28 03:51:44;;;;;;;102.90;98.30;;;9.60;99.90;;;;;;4989150;28;20120;-75
2023/05/28 03:54:10;;;;;;;111.07;105.63;;;9.50;99.90;;;;;;4986822;28;20038;-75
2023/05/28 03:56:36;;;;;;;109.55;104.22;;;9.50;99.90;;;;;;4985769;28;20233;-75
2023/05/28 03:59:01;;;;;;;108.43;103.13;;;9.50;99.90;;;;;;4986092;28;20049;-75
2023/05/28 04:01:27;;;;;;;108.40;103.45;;;9.50;99.90;;;;;;4981501;28;20185;-76
2023/05/28 04:03:54;;;;;;;107.80;102.65;;;9.50;99.90;;;;;;4986764;28;20042;-75
2023/05/28 04:06:20;;;;;;;108.38;103.10;;;9.50;99.90;;;;;;4985801;28;20038;-75
2023/05/28 04:08:46;;;;;;;106.95;101.93;;;9.50;99.90;;;;;;4985852;28;20185;-75
2023/05/28 04:11:12;;;;;;;107.90;102.82;;;9.50;99.90;;;;;;4986718;28;20133;-75
2023/05/28 04:13:38;;;;;;;107.57;102.03;;;9.50;99.90;;;;;;4986186;28;20141;-75
2023/05/28 04:16:03;;;;;;;108.28;102.80;;;9.60;99.90;;;;;;4963854;28;20043;-75
2023/05/28 04:18:29;;;;;;;104.20;99.22;;;9.60;99.90;;;;;;4985381;28;20042;-75
2023/05/28 04:20:55;;;;;;;103.03;98.03;;;9.60;99.90;;;;;;4986377;28;20119;-75
2023/05/28 04:23:21;;;;;;;99.20;94.18;;;9.60;99.90;;;;;;4985523;28;20054;-75
2023/05/28 04:25:47;;;;;;;97.60;92.90;;;9.60;99.90;;;;;;4967032;28;20387;-76
2023/05/28 04:28:14;;;;;;;95.28;90.85;;;9.60;99.90;;;;;;4985165;28;20537;-75
2023/05/28 04:30:40;;;;;;;88.68;84.20;;;9.70;99.90;;;;;;4986299;28;20039;-75
2023/05/28 04:33:06;;;;;;;94.32;89.35;;;9.70;99.90;;;;;;4986185;28;20038;-75
2023/05/28 04:35:32;;;;;;;91.47;86.95;;;9.70;99.90;;;;;;4969251;28;20592;-76
2023/05/28 04:37:59;;;;;;;89.90;85.53;;;9.80;99.90;;;;;;4986363;28;20073;-75
2023/05/28 04:40:25;;;;;;;88.47;83.78;;;9.90;99.90;;;;;;4983794;28;20046;-76
2023/05/28 04:42:53;;;;;;;82.90;78.60;;;10.00;99.90;;;;;;4990147;28;20093;-75
2023/05/28 04:45:19;;;;;;;83.70;78.88;;;10.10;99.90;;;;;;4989353;28;20042;-75
2023/05/28 04:47:45;;;;;;;80.35;76.38;;;10.20;99.90;;;;;;4988732;28;20054;-75
2023/05/28 04:50:11;;;;;;;81.50;76.75;;;10.20;99.90;;;;;;4986475;28;20042;-75
2023/05/28 04:52:37;;;;;;;78.15;73.80;;;10.30;99.90;;;;;;4986062;28;20446;-75
2023/05/28 04:55:06;;;;;;;76.28;72.18;;;10.40;99.90;;;;;;4972978;28;20488;-76
2023/05/28 04:57:32;;;;;;;76.40;72.43;;;10.50;99.90;;;;;;4985089;28;20065;-76
2023/05/28 04:59:58;;;;;;;75.50;71.30;;;10.50;99.90;;;;;;4988248;28;20050;-76
2023/05/28 05:02:24;;;;;;;75.97;71.85;;;10.60;99.90;;;;;;4989906;28;20213;-76
2023/05/28 05:04:50;;;;;;;75.75;71.85;;;10.70;99.90;;;;;;4989373;28;20117;-76
2023/05/28 05:07:16;;;;;;;74.75;70.85;;;10.70;99.90;;;;;;4985003;28;20129;-76
2023/05/28 05:09:42;;;;;;;74.30;70.35;;;10.90;99.90;;;;;;4988590;28;20042;-76
2023/05/28 05:12:08;;;;;;;75.30;71.18;;;10.90;99.90;;;;;;4988462;28;20053;-75
2023/05/28 05:14:34;;;;;;;69.20;65.53;;;11.00;99.90;;;;;;4988173;28;20046;-76
2023/05/28 05:17:00;;;;;;;67.38;63.83;;;11.00;99.90;;;;;;4987257;28;20050;-76
2023/05/28 05:19:27;;;;;;;67.63;64.05;;;11.10;99.90;;;;;;4989844;28;20057;-76
2023/05/28 05:21:52;;;;;;;70.65;66.90;;;11.10;99.90;;;;;;4988494;28;20078;-76
2023/05/28 05:24:18;;;;;;;73.40;69.40;;;11.20;99.90;;;;;;4984800;28;20078;-75
2023/05/28 05:26:43;;;;;;;75.18;71.07;;;11.40;99.90;;;;;;4989221;28;20104;-76
2023/05/28 05:29:09;;;;;;;70.80;67.22;;;11.60;99.90;;;;;;4989359;28;20597;-77
2023/05/28 05:31:35;;;;;;;78.20;74.35;;;11.70;99.90;;;;;;4988084;28;20061;-76
2023/05/28 05:34:01;;;;;;;76.90;73.15;;;11.80;99.90;;;;;;4973128;28;20482;-76
2023/05/28 05:36:26;;;;;;;79.88;75.65;;;12.00;99.90;;;;;;4988781;28;20107;-76
2023/05/28 05:38:52;;;;;;;77.07;73.28;;;12.30;99.90;;;;;;4988823;28;20546;-76
2023/05/28 05:41:18;;;;;;;70.95;67.15;;;12.70;99.90;;;;;;4971697;28;20434;-76
2023/05/28 05:43:43;;;;;;;71.40;67.38;;;13.50;99.90;;;;;;4987223;28;20124;-76
2023/05/28 05:46:09;;;;;;;66.85;63.38;;;14.10;99.90;;;;;;4989372;28;20050;-76
2023/05/28 05:48:35;;;;;;;66.60;62.63;;;14.00;99.90;;;;;;4983949;28;20038;-77
2023/05/28 05:51:02;;;;;;;58.17;55.25;;;14.00;99.90;;;;;;4988282;28;20049;-77
2023/05/28 05:53:28;;;;;;;55.53;52.30;;;13.90;99.90;;;;;;4988128;28;20042;-76
2023/05/28 05:55:54;;;;;;;54.70;51.38;;;13.90;99.90;;;;;;4989271;28;20046;-78
2023/05/28 05:58:20;;;;;;;49.80;46.90;;;13.90;99.90;;;;;;4980620;28;20045;-79
2023/05/28 06:00:47;;;;;;;58.63;55.35;;;14.00;99.90;;;;;;4988151;28;20104;-77
2023/05/28 06:03:14;;;;;;;59.78;56.47;;;14.20;99.90;;;;;;5000206;28;20458;-77
2023/05/28 06:05:40;;;;;;;55.58;52.05;;;14.50;99.90;;;;;;5006199;28;20046;-78
2023/05/28 06:08:05;;;;;;;63.05;59.70;;;15.10;99.90;;;;;;4988410;28;20042;-77
2023/05/28 06:10:31;;;;;;;85.40;81.28;;;16.00;99.90;;;;;;4987427;28;20549;-77
2023/05/28 06:13:01;;;;;;;113.47;108.25;;;17.00;99.90;;;;;;4987931;28;20038;-78
2023/05/28 06:15:27;;;;;;;92.35;88.00;;;17.50;99.90;;;;;;4988154;28;20057;-79
2023/05/28 06:17:53;;;;;;;38.72;35.67;;;17.90;99.90;;;;;;4984207;28;20042;-77
2023/05/28 06:20:19;;;;;;;35.83;33.50;;;18.40;99.90;;;;;;4988588;28;20038;-78
2023/05/28 06:22:45;;;;;;;27.17;24.75;;;18.60;99.90;;;;;;4986923;28;20090;-78
2023/05/28 06:25:11;;;;;;;24.30;22.15;;;18.80;99.90;;;;;;4987809;28;20637;-78
2023/05/28 06:27:37;;;;;;;24.83;22.75;;;19.20;99.90;;;;;;4983630;28;20042;-77
2023/05/28 06:30:04;;;;;;;26.83;24.60;;;19.70;99.90;;;;;;4987313;28;20043;-76
2023/05/28 06:32:31;;;;;;;37.53;33.78;;;20.00;99.90;;;;;;4988886;28;20042;-77
2023/05/28 06:34:57;;;;;;;44.45;41.47;;;20.10;99.90;;;;;;4984499;28;20133;-76
2023/05/28 06:37:22;;;;;;;70.43;65.88;;;20.10;99.90;;;;;;4991629;28;20035;-77
2023/05/28 06:39:48;;;;;;;72.90;69.20;;;20.20;99.90;;;;;;4987108;28;20046;-77
2023/05/28 06:42:14;;;;;;;37.17;34.55;;;20.10;99.90;;;;;;4967006;28;20043;-77
2023/05/28 06:44:39;;;;;;;54.55;51.47;;;20.10;99.90;;;;;;5003639;28;20057;-78
2023/05/28 06:47:05;;;;;;;62.63;59.22;;;20.10;99.90;;;;;;4988891;28;20141;-76
2023/05/28 06:49:31;;;;;;;67.20;63.85;;;20.20;99.90;;;;;;4985036;28;20068;-77
2023/05/28 06:51:56;;;;;;;84.32;79.95;;;20.40;99.90;;;;;;4983900;28;20513;-76
2023/05/28 06:54:22;;;;;;;85.78;81.60;;;20.60;99.90;;;;;;4964888;28;20049;-79
2023/05/28 06:56:47;;;;;;;63.90;60.20;;;20.70;99.90;;;;;;4987245;28;20443;-78
2023/05/28 06:59:13;;;;;;;49.35;46.88;;;20.70;99.90;;;;;;4988230;28;20072;-77
2023/05/28 07:01:38;;;;;;;32.10;29.98;;;20.60;99.90;;;;;;4980924;28;20597;-76
2023/05/28 07:04:04;;;;;;;30.08;28.10;;;20.40;99.90;;;;;;4988347;28;20080;-80
2023/05/28 07:06:30;;;;;;;33.58;31.30;;;20.80;99.90;;;;;;4987508;28;20049;-78
2023/05/28 07:08:56;;;;;;;34.58;32.28;;;20.80;99.90;;;;;;4985592;28;20395;-76
2023/05/28 07:11:21;;;;;;;33.90;31.92;;;21.00;99.90;;;;;;4987370;28;20042;-77
2023/05/28 07:13:47;;;;;;;35.10;32.70;;;21.30;99.90;;;;;;4986684;28;20042;-79
2023/05/28 07:16:13;;;;;;;37.78;35.25;;;21.30;99.90;;;;;;4997104;28;20066;-77
2023/05/28 07:18:39;;;;;;;40.78;38.45;;;21.40;99.90;;;;;;4987778;28;20133;-77
2023/05/28 07:21:07;;;;;;;47.75;45.05;;;21.60;99.90;;;;;;4987131;28;20050;-78
2023/05/28 07:23:33;;;;;;;50.97;48.30;;;21.90;99.90;;;;;;4986375;28;20137;-79
2023/05/28 07:25:59;;;;;;;26.38;24.55;;;21.70;99.90;;;;;;4986222;28;20126;-77
2023/05/28 07:28:24;;;;;;;80.60;76.93;;;21.70;98.90;;;;;;4981851;28;20395;-77
2023/05/28 07:30:51;;;;;;;105.68;100.68;;;21.70;94.90;;;;;;4986987;28;20479;-76
2023/05/28 07:33:16;;;;;;;39.70;37.55;;;21.50;94.10;;;;;;4985946;28;20460;-74
2023/05/28 07:35:42;;;;;;;56.50;53.75;;;21.70;95.20;;;;;;4979978;28;20141;-75
2023/05/28 07:38:10;;;;;;;68.03;64.80;;;21.90;94.70;;;;;;4980513;28;20042;-74
2023/05/28 07:40:36;;;;;;;54.00;51.05;;;22.00;92.90;;;;;;4988097;28;20056;-75
2023/05/28 07:43:02;;;;;;;40.83;38.55;;;22.00;92.20;;;;;;4975490;28;20141;-76
2023/05/28 07:45:27;;;;;;;98.03;93.43;;;21.90;90.20;;;;;;4987855;28;20050;-75
2023/05/28 07:47:53;;;;;;;35.05;32.83;;;21.60;90.60;;;;;;4985701;28;20054;-74
2023/05/28 07:50:18;;;;;;;52.90;50.05;;;21.60;90.10;;;;;;4967704;28;20479;-75
2023/05/28 07:52:45;;;;;;;40.40;38.22;;;21.40;91.20;;;;;;4980259;28;20089;-76
2023/05/28 07:55:11;;;;;;;37.00;34.75;;;21.00;91.10;;;;;;4987049;28;20042;-74
2023/05/28 07:57:37;;;;;;;15.30;13.90;;;21.30;90.00;;;;;;4987239;28;20512;-76
2023/05/28 08:00:06;;;;;;;15.13;13.80;;;21.20;87.30;;;;;;4984185;28;20034;-74
2023/05/28 08:02:33;;;;;;;15.45;14.25;;;20.80;88.80;;;;;;4986837;28;20058;-77
2023/05/28 08:05:00;;;;;;;14.50;11.63;;;21.00;88.50;;;;;;4986301;28;20050;-75
2023/05/28 08:07:28;;;;;;;13.30;11.98;;;21.20;86.90;;;;;;4981670;28;20506;-75
2023/05/28 08:09:53;;;;;;;14.43;13.02;;;20.90;85.10;;;;;;4979220;28;20054;-77
2023/05/28 08:12:19;;;;;;;13.73;12.63;;;20.20;89.00;;;;;;4985359;28;20644;-75
2023/05/28 08:14:45;;;;;;;37.03;35.03;;;19.70;88.90;;;;;;4985661;28;20053;-75
2023/05/28 08:17:10;;;;;;;19.13;17.92;;;19.40;91.00;;;;;;4981951;28;20108;-74
2023/05/28 08:19:36;;;;;;;14.55;13.23;;;19.60;90.90;;;;;;4984697;28;20137;-75
2023/05/28 08:22:02;;;;;;;13.88;12.77;;;20.10;89.30;;;;;;4986754;28;20426;-75
2023/05/28 08:24:28;;;;;;;19.00;17.73;;;20.80;89.10;;;;;;4986161;28;20414;-74
2023/05/28 08:26:54;;;;;;;15.60;14.50;;;21.30;87.70;;;;;;4980141;28;20038;-77
2023/05/28 08:29:19;;;;;;;15.43;14.32;;;21.60;83.40;;;;;;4983309;28;20042;-77
2023/05/28 08:31:45;;;;;;;15.95;14.70;;;21.50;81.40;;;;;;4986989;28;20805;-75
2023/05/28 08:34:11;;;;;;;20.65;19.15;;;21.80;81.90;;;;;;4985171;28;20050;-75
2023/05/28 08:36:37;;;;;;;21.50;20.05;;;21.90;78.80;;;;;;4982465;28;20038;-77
2023/05/28 08:39:03;;;;;;;23.17;21.77;;;22.00;80.40;;;;;;4983278;28;20038;-76
2023/05/28 08:41:28;;;;;;;17.73;16.05;;;22.10;82.60;;;;;;4968780;28;20042;-76
2023/05/28 08:43:54;;;;;;;31.95;27.60;;;22.30;79.80;;;;;;4981655;28;20069;-77
2023/05/28 08:46:20;;;;;;;19.33;17.88;;;22.00;77.60;;;;;;4985049;28;20124;-75
2023/05/28 08:48:46;;;;;;;24.42;22.58;;;22.00;79.40;;;;;;4967000;28;20046;-76
2023/05/28 08:51:13;;;;;;;23.20;21.52;;;22.20;81.00;;;;;;4985610;28;20078;-76
2023/05/28 08:53:47;;;;;;;25.45;23.83;;;22.60;82.20;;;;;;4970427;28;20130;-77
2023/05/28 08:56:13;;;;;;;19.38;17.88;;;22.50;77.30;;;;;;4977482;28;20510;-75
2023/05/28 08:58:39;;;;;;;22.77;21.05;;;22.50;79.60;;;;;;4968478;28;20081;-75
2023/05/28 09:01:06;;;;;;;22.70;21.25;;;22.60;79.50;;;;;;4979590;28;20053;-76
2023/05/28 09:03:37;;;;;;;28.88;26.75;;;22.70;78.30;;;;;;4979399;28;20104;-75
2023/05/28 09:06:03;;;;;;;107.00;102.13;;;22.50;78.80;;;;;;4984775;28;20093;-74
2023/05/28 09:08:29;;;;;;;34.85;32.38;;;22.20;75.00;;;;;;4983997;28;20038;-77
2023/05/28 09:11:12;;;;;;;30.73;28.83;;;22.10;76.80;;;;;;4983235;28;20047;-78
2023/05/28 09:13:45;;;;;;;219.20;209.57;;;22.30;78.10;;;;;;4983206;28;20494;-75
2023/05/28 09:16:12;;;;;;;199.95;191.05;;;22.30;74.70;;;;;;4984562;28;20038;-76
2023/05/28 09:18:38;;;;;;;110.47;105.35;;;22.30;73.00;;;;;;4985982;28;20035;-77
2023/05/28 09:21:10;;;;;;;154.05;147.23;;;22.40;74.10;;;;;;4981659;28;20092;-77
2023/05/28 09:23:36;;;;;;;33.63;31.63;;;22.30;72.80;;;;;;4982333;28;20129;-78
2023/05/28 09:26:02;;;;;;;36.45;33.65;;;22.40;74.90;;;;;;4987309;28;20129;-75
2023/05/28 09:28:28;;;;;;;47.10;44.40;;;22.20;74.40;;;;;;4988527;28;20054;-78
2023/05/28 09:31:02;;;;;;;39.15;36.95;;;22.00;75.30;;;;;;4988123;28;20582;-76
2023/05/28 09:33:28;;;;;;;38.22;35.88;;;22.00;75.40;;;;;;4970461;28;20045;-77
2023/05/28 09:36:01;;;;;;;42.83;40.22;;;21.90;77.60;;;;;;4986350;28;20046;-77
2023/05/28 09:38:39;;;;;;;34.67;32.28;;;22.10;77.50;;;;;;4987587;28;20054;-76
2023/05/28 09:41:05;;;;;;;234.80;223.98;;;22.30;78.60;;;;;;4970703;28;20046;-76
2023/05/28 09:43:31;;;;;;;36.72;34.35;;;22.40;74.10;;;;;;4985482;28;20049;-77
2023/05/28 09:46:07;;;;;;;115.32;109.78;;;22.40;72.10;;;;;;4981974;28;20038;-78
2023/05/28 09:48:33;;;;;;;195.20;186.30;;;22.30;69.70;;;;;;4988876;28;20588;-77
2023/05/28 09:51:02;;;;;;;73.30;69.40;;;22.10;68.20;;;;;;4985435;28;20038;-78
2023/05/28 09:53:30;;;;;;;116.47;110.90;;;21.90;70.50;;;;;;4986943;28;20389;-76
2023/05/28 09:55:58;;;;;;;26.42;24.33;;;21.90;71.20;;;;;;4982736;28;20038;-78
2023/05/28 09:58:34;;;;;;;39.40;36.75;;;21.70;71.90;;;;;;4987579;28;20052;-76
2023/05/28 10:01:03;;;;;;;39.50;36.67;;;21.60;74.60;;;;;;4979983;28;21461;-76
2023/05/28 10:03:36;;;;;;;37.40;34.97;;;21.80;75.90;;;;;;4986649;28;20058;-77
2023/05/28 10:06:10;;;;;;;40.33;37.92;;;21.90;75.10;;;;;;4985577;28;20046;-75
2023/05/28 10:08:37;;;;;;;25.80;23.77;;;22.00;73.60;;;;;;4984788;28;20050;-77
2023/05/28 10:11:09;;;;;;;52.17;49.20;;;22.00;72.90;;;;;;4983214;28;21413;-75
2023/05/28 10:13:35;;;;;;;66.78;63.03;;;22.20;74.30;;;;;;4985259;28;20034;-76
2023/05/28 10:16:01;;;;;;;153.50;146.35;;;22.40;73.10;;;;;;4989329;28;20042;-76
2023/05/28 10:18:28;;;;;;;174.60;166.65;;;22.50;69.60;;;;;;4983012;28;20050;-75
2023/05/28 10:20:53;;;;;;;171.23;163.10;;;22.40;66.80;;;;;;4987988;28;20410;-76
2023/05/28 10:23:21;;;;;;;62.38;58.97;;;22.20;67.20;;;;;;4968767;28;20042;-76
2023/05/28 10:25:47;;;;;;;208.20;198.68;;;22.00;68.60;;;;;;4986756;28;20042;-76
2023/05/28 10:28:18;;;;;;;169.88;162.18;;;22.00;67.00;;;;;;4988123;28;20639;-75
2023/05/28 10:30:44;;;;;;;178.18;170.05;;;22.10;67.50;;;;;;4986289;28;20035;-76
2023/05/28 10:33:15;;;;;;;137.65;131.15;;;22.20;65.10;;;;;;4983244;28;21461;-73
2023/05/28 10:35:54;;;;;;;217.75;207.88;;;22.30;63.70;;;;;;4961875;28;20046;-74
2023/05/28 10:38:19;;;;;;;111.70;106.13;;;22.20;64.80;;;;;;4986637;28;20767;-75
2023/05/28 10:40:45;;;;;;;185.48;177.05;;;22.30;66.60;;;;;;4986956;28;20041;-75
2023/05/28 10:43:45;;;;;;;179.60;171.40;;;22.40;63.50;;;;;;4986488;28;20406;-77
2023/05/28 10:46:22;;;;;;;70.57;67.13;;;22.50;64.40;;;;;;4981730;28;20101;-75
2023/05/28 10:49:20;;;;;;;204.45;195.50;;;22.60;60.60;;;;;;5000013;28;20050;-76
2023/05/28 10:51:56;;;;;;;154.13;147.27;;;22.50;63.00;;;;;;4982597;28;20398;-75
2023/05/28 10:54:37;;;;;;;154.73;148.02;;;22.60;61.40;;;;;;4988436;28;20176;-76
2023/05/28 10:57:19;;;;;;;176.05;168.35;;;22.50;60.20;;;;;;4984157;28;20046;-75
2023/05/28 10:59:49;;;;;;;67.53;64.05;;;22.30;62.20;;;;;;4984843;28;20054;-76
2023/05/28 11:02:21;;;;;;;65.97;62.47;;;22.40;66.10;;;;;;4986235;28;20267;-75
2023/05/28 11:04:53;;;;;;;117.20;111.72;;;22.70;65.80;;;;;;4988275;28;20479;-76
2023/05/28 11:07:20;;;;;;;107.32;102.32;;;22.90;67.40;;;;;;4983011;28;20166;-76
2023/05/28 11:09:51;;;;;;;75.38;71.82;;;23.00;65.30;;;;;;4986529;28;20054;-78
2023/05/28 11:12:19;;;;;;;68.10;64.75;;;23.00;66.20;;;;;;4987575;28;20088;-77
2023/05/28 11:14:45;;;;;;;168.48;160.85;;;23.00;65.50;;;;;;4986677;28;20042;-74
2023/05/28 11:17:12;;;;;;;45.28;42.80;;;22.90;65.90;;;;;;4987460;28;20040;-75
2023/05/28 11:19:44;;;;;;;19.98;18.45;;;22.90;67.50;;;;;;4985404;28;20050;-77
2023/05/28 11:22:10;;;;;;;29.45;27.45;;;22.90;68.60;;;;;;4980821;28;20049;-76
2023/05/28 11:24:58;;;;;;;126.15;120.35;;;23.00;67.90;;;;;;4988105;28;20097;-78
2023/05/28 11:27:25;;;;;;;46.28;43.63;;;22.90;67.10;;;;;;4969720;28;20450;-76
2023/05/28 11:29:54;;;;;;;21.58;19.98;;;22.80;68.80;;;;;;4980256;28;20053;-76
2023/05/28 11:32:20;;;;;;;40.85;38.45;;;22.90;68.40;;;;;;4987081;28;20415;-77
2023/05/28 11:34:48;;;;;;;43.17;40.75;;;22.70;68.00;;;;;;4968362;28;20034;-78
2023/05/28 11:37:14;;;;;;;35.42;33.15;;;22.60;70.70;;;;;;4986210;28;20038;-76
2023/05/28 11:39:48;;;;;;;22.30;20.58;;;22.70;70.60;;;;;;4978788;28;20333;-76
2023/05/28 11:42:14;;;;;;;25.63;23.85;;;22.70;70.70;;;;;;4986447;28;20077;-78
2023/05/28 11:44:44;;;;;;;38.78;36.35;;;22.70;70.20;;;;;;4985031;28;20120;-76
2023/05/28 11:47:10;;;;;;;27.02;25.17;;;22.70;70.90;;;;;;4966935;28;20045;-77
2023/05/28 11:49:37;;;;;;;29.67;27.73;;;22.80;71.20;;;;;;4982923;28;20379;-75
2023/05/28 11:52:03;;;;;;;35.90;33.85;;;22.80;69.60;;;;;;4981606;28;20034;-76
2023/05/28 11:54:28;;;;;;;41.50;39.08;;;22.80;71.70;;;;;;4969671;28;20039;-77
2023/05/28 11:56:54;;;;;;;51.70;48.80;;;22.80;72.10;;;;;;4983514;28;20529;-78
2023/05/28 11:59:26;;;;;;;36.50;34.30;;;22.90;72.80;;;;;;4983090;28;20045;-77
2023/05/28 12:01:52;;;;;;;40.35;38.08;;;23.00;72.70;;;;;;4978098;28;20046;-77
2023/05/28 12:04:24;;;;;;;40.25;37.72;;;22.90;74.50;;;;;;4999915;28;20054;-76
2023/05/28 12:06:53;;;;;;;28.23;26.20;;;22.90;74.30;;;;;;4984377;28;20398;-77
2023/05/28 12:09:19;;;;;;;27.20;24.80;;;22.90;75.60;;;;;;4967697;28;20529;-77
2023/05/28 12:12:01;;;;;;;28.85;26.63;;;22.80;78.10;;;;;;4983128;28;20141;-76
2023/05/28 12:14:26;;;;;;;34.13;31.65;;;22.80;79.20;;;;;;4984161;28;20379;-76
2023/05/28 12:16:53;;;;;;;51.42;48.30;;;22.60;79.80;;;;;;4968507;28;20049;-76
2023/05/28 12:19:18;;;;;;;49.97;46.85;;;22.60;81.70;;;;;;4984824;28;20069;-78
2023/05/28 12:21:45;;;;;;;65.38;61.78;;;22.60;83.60;;;;;;4983717;28;20504;-75
2023/05/28 12:24:14;;;;;;;46.45;43.75;;;22.60;82.90;;;;;;4983889;28;20049;-77